sensor_id;sensor_type;location;lat;lon;timestamp;P1;durP1;ratioP1;P2;durP2;ratioP2
4428;SDS011;2227;47.810;8.810;2023-08-20T04:32:55;7.40;;;5.80;;
4428;SDS011;2227;47.810;8.810;2023-08-20T04:35:22;6.88;;;5.32;;
4428;SDS011;2227;47.810;8.810;2023-08-20T04:37:48;8.00;;;5.70;;
4428;SDS011;2227;47.810;8.810;2023-08-20T04:40:15;7.25;;;5.53;;
4428;SDS011;2227;47.810;8.810;2023-08-20T04:42:43;6.70;;;5.53;;
4428;SDS011;2227;47.810;8.810;2023-08-20T04:45:10;7.13;;;5.57;;
4428;SDS011;2227;47.810;8.810;2023-08-20T04:47:37;6.95;;;5.47;;
4428;SDS011;2227;47.810;8.810;2023-08-20T04:50:05;8.43;;;6.03;;
4428;SDS011;2227;47.810;8.810;2023-08-20T04:52:33;7.93;;;6.05;;
4428;SDS011;2227;47.810;8.810;2023-08-20T04:55:00;8.98;;;6.18;;
4428;SDS011;2227;47.810;8.810;2023-08-20T04:57:27;7.40;;;5.80;;
4428;SDS011;2227;47.810;8.810;2023-08-20T04:59:54;7.35;;;5.80;;
4428;SDS011;2227;47.810;8.810;2023-08-20T05:02:21;8.90;;;5.72;;
4428;SDS011;2227;47.810;8.810;2023-08-20T05:04:48;8.68;;;5.93;;
4428;SDS011;2227;47.810;8.810;2023-08-20T05:07:15;7.20;;;5.43;;
4428;SDS011;2227;47.810;8.810;2023-08-20T05:09:42;8.35;;;6.03;;
4428;SDS011;2227;47.810;8.810;2023-08-20T05:12:08;9.95;;;5.90;;
4428;SDS011;2227;47.810;8.810;2023-08-20T05:14:35;7.25;;;5.85;;
4428;SDS011;2227;47.810;8.810;2023-08-20T05:17:02;8.05;;;5.40;;
4428;SDS011;2227;47.810;8.810;2023-08-20T05:19:29;7.60;;;5.80;;
4428;SDS011;2227;47.810;8.810;2023-08-20T05:21:56;7.05;;;5.90;;
4428;SDS011;2227;47.810;8.810;2023-08-20T05:24:25;8.30;;;6.30;;
4428;SDS011;2227;47.810;8.810;2023-08-20T05:29:43;6.60;;;5.18;;
4428;SDS011;2227;47.810;8.810;2023-08-20T05:32:10;7.55;;;5.57;;
4428;SDS011;2227;47.810;8.810;2023-08-20T05:34:36;7.53;;;5.47;;
4428;SDS011;2227;47.810;8.810;2023-08-20T05:37:03;7.50;;;5.97;;
4428;SDS011;2227;47.810;8.810;2023-08-20T05:39:30;8.27;;;6.10;;
4428;SDS011;2227;47.810;8.810;2023-08-20T05:42:02;7.93;;;5.97;;
4428;SDS011;2227;47.810;8.810;2023-08-20T05:44:31;7.15;;;5.97;;
4428;SDS011;2227;47.810;8.810;2023-08-20T05:46:58;7.28;;;5.93;;
4428;SDS011;2227;47.810;8.810;2023-08-20T05:49:25;7.88;;;6.30;;
4428;SDS011;2227;47.810;8.810;2023-08-20T05:51:54;7.57;;;6.40;;
4428;SDS011;2227;47.810;8.810;2023-08-20T05:54:21;7.35;;;6.50;;
4428;SDS011;2227;47.810;8.810;2023-08-20T05:56:47;7.53;;;6.38;;
4428;SDS011;2227;47.810;8.810;2023-08-20T05:59:14;7.03;;;6.05;;
4428;SDS011;2227;47.810;8.810;2023-08-20T06:01:41;7.35;;;6.03;;
4428;SDS011;2227;47.810;8.810;2023-08-20T06:04:09;7.43;;;6.15;;
4428;SDS011;2227;47.810;8.810;2023-08-20T06:06:36;7.32;;;5.63;;
4428;SDS011;2227;47.810;8.810;2023-08-20T06:09:03;7.60;;;5.88;;
4428;SDS011;2227;47.810;8.810;2023-08-20T06:11:35;7.38;;;6.45;;
4428;SDS011;2227;47.810;8.810;2023-08-20T06:14:02;9.07;;;6.50;;
4428;SDS011;2227;47.810;8.810;2023-08-20T06:16:29;8.43;;;6.20;;
4428;SDS011;2227;47.810;8.810;2023-08-20T06:18:57;7.35;;;5.72;;
4428;SDS011;2227;47.810;8.810;2023-08-20T06:21:28;7.50;;;5.38;;
4428;SDS011;2227;47.810;8.810;2023-08-20T06:23:55;7.80;;;6.03;;
4428;SDS011;2227;47.810;8.810;2023-08-20T06:26:21;7.97;;;6.10;;
4428;SDS011;2227;47.810;8.810;2023-08-20T06:28:48;7.45;;;5.85;;
4428;SDS011;2227;47.810;8.810;2023-08-20T06:31:15;7.40;;;5.75;;
4428;SDS011;2227;47.810;8.810;2023-08-20T06:33:42;8.30;;;6.05;;
4428;SDS011;2227;47.810;8.810;2023-08-20T06:36:08;7.20;;;5.65;;
4428;SDS011;2227;47.810;8.810;2023-08-20T06:38:35;8.10;;;5.82;;
4428;SDS011;2227;47.810;8.810;2023-08-20T06:41:02;7.45;;;5.63;;
4428;SDS011;2227;47.810;8.810;2023-08-20T06:43:29;8.63;;;6.15;;
4428;SDS011;2227;47.810;8.810;2023-08-20T06:45:55;9.68;;;6.57;;
4428;SDS011;2227;47.810;8.810;2023-08-20T06:48:22;8.70;;;6.43;;
4428;SDS011;2227;47.810;8.810;2023-08-20T06:50:50;8.20;;;5.68;;
4428;SDS011;2227;47.810;8.810;2023-08-20T06:53:17;7.53;;;5.90;;
4428;SDS011;2227;47.810;8.810;2023-08-20T06:55:44;7.03;;;6.13;;
4428;SDS011;2227;47.810;8.810;2023-08-20T06:58:11;6.10;;;5.45;;
4428;SDS011;2227;47.810;8.810;2023-08-20T07:00:38;7.97;;;6.20;;
4428;SDS011;2227;47.810;8.810;2023-08-20T07:03:05;7.65;;;5.57;;
4428;SDS011;2227;47.810;8.810;2023-08-20T07:05:32;6.43;;;5.70;;
4428;SDS011;2227;47.810;8.810;2023-08-20T07:07:59;6.20;;;5.47;;
4428;SDS011;2227;47.810;8.810;2023-08-20T07:10:25;7.78;;;6.10;;
4428;SDS011;2227;47.810;8.810;2023-08-20T07:12:52;7.15;;;5.68;;
4428;SDS011;2227;47.810;8.810;2023-08-20T07:15:19;5.85;;;4.93;;
4428;SDS011;2227;47.810;8.810;2023-08-20T07:17:46;7.00;;;5.65;;
4428;SDS011;2227;47.810;8.810;2023-08-20T07:20:12;7.15;;;5.90;;
4428;SDS011;2227;47.810;8.810;2023-08-20T07:22:39;7.68;;;5.45;;
4428;SDS011;2227;47.810;8.810;2023-08-20T07:25:06;6.68;;;5.45;;
4428;SDS011;2227;47.810;8.810;2023-08-20T07:27:33;7.10;;;5.85;;
4428;SDS011;2227;47.810;8.810;2023-08-20T07:30:01;6.80;;;6.07;;
4428;SDS011;2227;47.810;8.810;2023-08-20T07:32:27;10.23;;;6.00;;
4428;SDS011;2227;47.810;8.810;2023-08-20T07:34:54;8.07;;;5.72;;
4428;SDS011;2227;47.810;8.810;2023-08-20T07:37:21;6.68;;;5.50;;
4428;SDS011;2227;47.810;8.810;2023-08-20T07:39:48;7.78;;;5.63;;
4428;SDS011;2227;47.810;8.810;2023-08-20T07:42:15;7.88;;;6.20;;
4428;SDS011;2227;47.810;8.810;2023-08-20T07:44:42;7.65;;;6.10;;
4428;SDS011;2227;47.810;8.810;2023-08-20T07:47:09;6.90;;;5.65;;
4428;SDS011;2227;47.810;8.810;2023-08-20T07:49:35;6.10;;;5.50;;
4428;SDS011;2227;47.810;8.810;2023-08-20T07:52:02;9.27;;;5.70;;
4428;SDS011;2227;47.810;8.810;2023-08-20T07:54:29;7.13;;;6.00;;
4428;SDS011;2227;47.810;8.810;2023-08-20T07:56:56;6.03;;;5.43;;
4428;SDS011;2227;47.810;8.810;2023-08-20T07:59:22;7.55;;;5.57;;
4428;SDS011;2227;47.810;8.810;2023-08-20T08:01:49;6.90;;;5.40;;
4428;SDS011;2227;47.810;8.810;2023-08-20T08:04:16;5.63;;;4.93;;
4428;SDS011;2227;47.810;8.810;2023-08-20T08:06:43;8.27;;;5.68;;
4428;SDS011;2227;47.810;8.810;2023-08-20T08:09:20;5.53;;;4.90;;
4428;SDS011;2227;47.810;8.810;2023-08-20T08:11:48;6.18;;;4.90;;
4428;SDS011;2227;47.810;8.810;2023-08-20T08:14:15;6.68;;;5.40;;
4428;SDS011;2227;47.810;8.810;2023-08-20T08:16:42;6.50;;;5.00;;
4428;SDS011;2227;47.810;8.810;2023-08-20T08:19:10;6.80;;;4.88;;
4428;SDS011;2227;47.810;8.810;2023-08-20T08:21:38;5.47;;;4.50;;
4428;SDS011;2227;47.810;8.810;2023-08-20T08:24:05;7.85;;;4.88;;
4428;SDS011;2227;47.810;8.810;2023-08-20T08:26:33;6.82;;;4.75;;
4428;SDS011;2227;47.810;8.810;2023-08-20T08:29:00;6.10;;;4.85;;
4428;SDS011;2227;47.810;8.810;2023-08-20T08:31:28;8.00;;;4.82;;
4428;SDS011;2227;47.810;8.810;2023-08-20T08:33:55;6.80;;;4.68;;
4428;SDS011;2227;47.810;8.810;2023-08-20T08:36:22;5.68;;;4.40;;
4428;SDS011;2227;47.810;8.810;2023-08-20T08:38:51;5.05;;;3.90;;
4428;SDS011;2227;47.810;8.810;2023-08-20T08:41:20;6.72;;;4.35;;
4428;SDS011;2227;47.810;8.810;2023-08-20T08:43:51;5.85;;;4.50;;
4428;SDS011;2227;47.810;8.810;2023-08-20T08:46:19;5.30;;;4.13;;
4428;SDS011;2227;47.810;8.810;2023-08-20T08:48:47;6.03;;;3.88;;
4428;SDS011;2227;47.810;8.810;2023-08-20T08:51:14;4.90;;;3.85;;
4428;SDS011;2227;47.810;8.810;2023-08-20T08:53:43;4.50;;;3.88;;
4428;SDS011;2227;47.810;8.810;2023-08-20T08:56:10;6.15;;;4.20;;
4428;SDS011;2227;47.810;8.810;2023-08-20T08:58:37;6.15;;;3.80;;
4428;SDS011;2227;47.810;8.810;2023-08-20T09:01:04;7.90;;;4.40;;
4428;SDS011;2227;47.810;8.810;2023-08-20T09:03:31;5.32;;;3.65;;
4428;SDS011;2227;47.810;8.810;2023-08-20T09:05:59;6.18;;;4.25;;
4428;SDS011;2227;47.810;8.810;2023-08-20T09:08:29;5.38;;;3.88;;
4428;SDS011;2227;47.810;8.810;2023-08-20T09:10:58;6.78;;;4.30;;
4428;SDS011;2227;47.810;8.810;2023-08-20T09:13:36;7.28;;;4.00;;
4428;SDS011;2227;47.810;8.810;2023-08-20T09:16:13;4.80;;;3.80;;
4428;SDS011;2227;47.810;8.810;2023-08-20T09:18:40;5.78;;;4.00;;
4428;SDS011;2227;47.810;8.810;2023-08-20T09:21:11;6.88;;;3.90;;
4428;SDS011;2227;47.810;8.810;2023-08-20T09:23:39;5.25;;;3.60;;
4428;SDS011;2227;47.810;8.810;2023-08-20T09:26:07;7.20;;;4.20;;
4428;SDS011;2227;47.810;8.810;2023-08-20T09:28:40;4.88;;;3.80;;
4428;SDS011;2227;47.810;8.810;2023-08-20T09:31:12;6.32;;;3.90;;
4428;SDS011;2227;47.810;8.810;2023-08-20T09:33:49;4.68;;;3.67;;
4428;SDS011;2227;47.810;8.810;2023-08-20T09:36:31;5.75;;;3.50;;
4428;SDS011;2227;47.810;8.810;2023-08-20T09:38:59;6.03;;;3.95;;
4428;SDS011;2227;47.810;8.810;2023-08-20T09:41:28;4.85;;;3.58;;
4428;SDS011;2227;47.810;8.810;2023-08-20T09:43:57;5.70;;;4.05;;
4428;SDS011;2227;47.810;8.810;2023-08-20T09:46:26;5.75;;;3.95;;
4428;SDS011;2227;47.810;8.810;2023-08-20T09:48:56;5.07;;;4.15;;
4428;SDS011;2227;47.810;8.810;2023-08-20T09:51:24;5.80;;;3.47;;
4428;SDS011;2227;47.810;8.810;2023-08-20T09:53:55;4.80;;;3.40;;
4428;SDS011;2227;47.810;8.810;2023-08-20T09:56:29;4.70;;;3.80;;
4428;SDS011;2227;47.810;8.810;2023-08-20T09:58:57;6.13;;;3.80;;
4428;SDS011;2227;47.810;8.810;2023-08-20T10:01:25;4.75;;;3.85;;
4428;SDS011;2227;47.810;8.810;2023-08-20T10:03:54;4.90;;;3.85;;
4428;SDS011;2227;47.810;8.810;2023-08-20T10:06:20;4.47;;;3.63;;
4428;SDS011;2227;47.810;8.810;2023-08-20T10:08:49;3.97;;;3.30;;
4428;SDS011;2227;47.810;8.810;2023-08-20T10:11:17;6.47;;;3.55;;
4428;SDS011;2227;47.810;8.810;2023-08-20T10:13:44;4.78;;;3.42;;
4428;SDS011;2227;47.810;8.810;2023-08-20T10:16:17;4.47;;;3.28;;
4428;SDS011;2227;47.810;8.810;2023-08-20T10:18:47;6.90;;;3.90;;
4428;SDS011;2227;47.810;8.810;2023-08-20T10:21:14;4.72;;;3.67;;
4428;SDS011;2227;47.810;8.810;2023-08-20T10:23:40;5.93;;;3.92;;
4428;SDS011;2227;47.810;8.810;2023-08-20T10:26:10;5.57;;;3.63;;
4428;SDS011;2227;47.810;8.810;2023-08-20T10:28:37;3.67;;;3.30;;
4428;SDS011;2227;47.810;8.810;2023-08-20T10:31:13;4.63;;;3.50;;
4428;SDS011;2227;47.810;8.810;2023-08-20T10:36:14;5.68;;;4.05;;
4428;SDS011;2227;47.810;8.810;2023-08-20T10:38:46;6.50;;;3.88;;
4428;SDS011;2227;47.810;8.810;2023-08-20T10:41:13;4.88;;;3.60;;
4428;SDS011;2227;47.810;8.810;2023-08-20T10:43:46;5.68;;;3.50;;
4428;SDS011;2227;47.810;8.810;2023-08-20T10:46:21;5.82;;;3.45;;
4428;SDS011;2227;47.810;8.810;2023-08-20T10:48:50;4.32;;;3.50;;
4428;SDS011;2227;47.810;8.810;2023-08-20T10:51:25;4.28;;;3.75;;
4428;SDS011;2227;47.810;8.810;2023-08-20T10:59:14;8.18;;;3.40;;
4428;SDS011;2227;47.810;8.810;2023-08-20T11:01:50;6.63;;;3.33;;
4428;SDS011;2227;47.810;8.810;2023-08-20T11:04:22;5.80;;;3.30;;
4428;SDS011;2227;47.810;8.810;2023-08-20T11:06:53;4.93;;;3.40;;
4428;SDS011;2227;47.810;8.810;2023-08-20T11:09:22;5.13;;;3.40;;
4428;SDS011;2227;47.810;8.810;2023-08-20T11:11:49;5.93;;;3.30;;
4428;SDS011;2227;47.810;8.810;2023-08-20T11:14:17;4.55;;;3.17;;
4428;SDS011;2227;47.810;8.810;2023-08-20T11:16:45;4.47;;;3.22;;
4428;SDS011;2227;47.810;8.810;2023-08-20T11:19:13;5.05;;;3.28;;
4428;SDS011;2227;47.810;8.810;2023-08-20T11:21:41;4.47;;;3.40;;
4428;SDS011;2227;47.810;8.810;2023-08-20T11:24:08;4.50;;;2.97;;
4428;SDS011;2227;47.810;8.810;2023-08-20T11:26:38;4.72;;;3.17;;
4428;SDS011;2227;47.810;8.810;2023-08-20T11:29:06;5.25;;;3.03;;
4428;SDS011;2227;47.810;8.810;2023-08-20T11:31:33;5.00;;;3.50;;
4428;SDS011;2227;47.810;8.810;2023-08-20T11:34:02;5.32;;;3.05;;
4428;SDS011;2227;47.810;8.810;2023-08-20T11:36:29;6.53;;;3.10;;
4428;SDS011;2227;47.810;8.810;2023-08-20T11:38:57;5.00;;;3.08;;
4428;SDS011;2227;47.810;8.810;2023-08-20T11:41:24;6.35;;;2.90;;
4428;SDS011;2227;47.810;8.810;2023-08-20T11:43:52;4.47;;;3.05;;
4428;SDS011;2227;47.810;8.810;2023-08-20T11:46:20;5.05;;;3.58;;
4428;SDS011;2227;47.810;8.810;2023-08-20T11:51:35;4.57;;;3.60;;
4428;SDS011;2227;47.810;8.810;2023-08-20T11:54:16;5.97;;;3.50;;
4428;SDS011;2227;47.810;8.810;2023-08-20T11:56:50;5.78;;;3.72;;
4428;SDS011;2227;47.810;8.810;2023-08-20T11:59:18;6.95;;;4.38;;
4428;SDS011;2227;47.810;8.810;2023-08-20T12:01:56;6.15;;;4.18;;
4428;SDS011;2227;47.810;8.810;2023-08-20T12:04:24;6.57;;;3.28;;
4428;SDS011;2227;47.810;8.810;2023-08-20T12:07:08;4.55;;;3.15;;
4428;SDS011;2227;47.810;8.810;2023-08-20T12:09:39;4.38;;;3.30;;
4428;SDS011;2227;47.810;8.810;2023-08-20T12:12:07;5.82;;;3.45;;
4428;SDS011;2227;47.810;8.810;2023-08-20T12:14:35;5.10;;;3.80;;
4428;SDS011;2227;47.810;8.810;2023-08-20T12:17:02;6.28;;;3.70;;
4428;SDS011;2227;47.810;8.810;2023-08-20T12:19:31;6.10;;;3.60;;
4428;SDS011;2227;47.810;8.810;2023-08-20T12:21:58;6.55;;;3.70;;
4428;SDS011;2227;47.810;8.810;2023-08-20T12:24:25;4.85;;;3.97;;
4428;SDS011;2227;47.810;8.810;2023-08-20T12:26:52;4.57;;;4.13;;
4428;SDS011;2227;47.810;8.810;2023-08-20T12:29:19;4.60;;;3.70;;
4428;SDS011;2227;47.810;8.810;2023-08-20T12:31:46;4.60;;;3.95;;
4428;SDS011;2227;47.810;8.810;2023-08-20T12:34:13;5.20;;;4.20;;
4428;SDS011;2227;47.810;8.810;2023-08-20T12:36:40;6.03;;;3.88;;
4428;SDS011;2227;47.810;8.810;2023-08-20T12:39:07;5.05;;;4.13;;
4428;SDS011;2227;47.810;8.810;2023-08-20T12:41:34;6.40;;;4.07;;
4428;SDS011;2227;47.810;8.810;2023-08-20T12:44:04;5.05;;;3.83;;
4428;SDS011;2227;47.810;8.810;2023-08-20T12:46:31;4.45;;;3.55;;
4428;SDS011;2227;47.810;8.810;2023-08-20T12:48:58;6.60;;;3.97;;
4428;SDS011;2227;47.810;8.810;2023-08-20T12:51:26;7.35;;;4.20;;
4428;SDS011;2227;47.810;8.810;2023-08-20T12:53:53;5.45;;;4.00;;
4428;SDS011;2227;47.810;8.810;2023-08-20T12:56:19;5.97;;;3.47;;
4428;SDS011;2227;47.810;8.810;2023-08-20T12:58:46;4.15;;;3.47;;
4428;SDS011;2227;47.810;8.810;2023-08-20T13:01:13;5.68;;;3.80;;
4428;SDS011;2227;47.810;8.810;2023-08-20T13:03:40;6.85;;;3.60;;
4428;SDS011;2227;47.810;8.810;2023-08-20T13:06:07;4.88;;;3.42;;
4428;SDS011;2227;47.810;8.810;2023-08-20T13:08:34;6.20;;;3.60;;
4428;SDS011;2227;47.810;8.810;2023-08-20T13:11:03;6.28;;;3.70;;
4428;SDS011;2227;47.810;8.810;2023-08-20T13:13:32;4.75;;;3.20;;
4428;SDS011;2227;47.810;8.810;2023-08-20T13:16:00;7.28;;;3.10;;
4428;SDS011;2227;47.810;8.810;2023-08-20T13:18:28;4.47;;;2.90;;
4428;SDS011;2227;47.810;8.810;2023-08-20T13:20:56;5.15;;;3.20;;
4428;SDS011;2227;47.810;8.810;2023-08-20T13:23:22;4.68;;;3.00;;
4428;SDS011;2227;47.810;8.810;2023-08-20T13:25:50;5.15;;;2.70;;
4428;SDS011;2227;47.810;8.810;2023-08-20T13:28:16;3.78;;;2.90;;
4428;SDS011;2227;47.810;8.810;2023-08-20T13:30:44;6.45;;;2.90;;
4428;SDS011;2227;47.810;8.810;2023-08-20T13:33:12;6.80;;;2.70;;
4428;SDS011;2227;47.810;8.810;2023-08-20T13:35:40;4.65;;;2.50;;
4428;SDS011;2227;47.810;8.810;2023-08-20T13:38:08;3.65;;;2.67;;
4428;SDS011;2227;47.810;8.810;2023-08-20T13:40:35;5.03;;;2.75;;
4428;SDS011;2227;47.810;8.810;2023-08-20T13:43:01;4.30;;;2.65;;
4428;SDS011;2227;47.810;8.810;2023-08-20T13:45:28;4.30;;;2.53;;
4428;SDS011;2227;47.810;8.810;2023-08-20T13:47:55;4.20;;;2.45;;
4428;SDS011;2227;47.810;8.810;2023-08-20T13:50:22;5.38;;;2.30;;
4428;SDS011;2227;47.810;8.810;2023-08-20T13:52:49;3.65;;;2.33;;
4428;SDS011;2227;47.810;8.810;2023-08-20T13:55:16;6.43;;;2.90;;
4428;SDS011;2227;47.810;8.810;2023-08-20T13:57:43;4.97;;;2.67;;
4428;SDS011;2227;47.810;8.810;2023-08-20T14:00:10;4.50;;;2.28;;
4428;SDS011;2227;47.810;8.810;2023-08-20T14:02:39;4.38;;;2.63;;
4428;SDS011;2227;47.810;8.810;2023-08-20T14:05:06;3.70;;;2.28;;
4428;SDS011;2227;47.810;8.810;2023-08-20T14:07:33;5.78;;;2.50;;
4428;SDS011;2227;47.810;8.810;2023-08-20T14:10:01;4.35;;;2.40;;
4428;SDS011;2227;47.810;8.810;2023-08-20T14:12:30;4.05;;;2.90;;
4428;SDS011;2227;47.810;8.810;2023-08-20T14:14:57;4.60;;;3.00;;
4428;SDS011;2227;47.810;8.810;2023-08-20T14:17:24;5.05;;;3.08;;
4428;SDS011;2227;47.810;8.810;2023-08-20T14:19:51;4.45;;;2.83;;
4428;SDS011;2227;47.810;8.810;2023-08-20T14:22:18;3.78;;;2.60;;
4428;SDS011;2227;47.810;8.810;2023-08-20T14:24:45;4.63;;;2.95;;
4428;SDS011;2227;47.810;8.810;2023-08-20T14:27:12;6.57;;;2.17;;
4428;SDS011;2227;47.810;8.810;2023-08-20T14:29:40;3.47;;;2.13;;
4428;SDS011;2227;47.810;8.810;2023-08-20T14:32:07;4.95;;;2.28;;
4428;SDS011;2227;47.810;8.810;2023-08-20T14:34:34;5.90;;;2.35;;
4428;SDS011;2227;47.810;8.810;2023-08-20T14:37:01;5.43;;;2.78;;
4428;SDS011;2227;47.810;8.810;2023-08-20T14:39:29;4.30;;;2.50;;
4428;SDS011;2227;47.810;8.810;2023-08-20T14:41:58;5.30;;;2.67;;
4428;SDS011;2227;47.810;8.810;2023-08-20T14:44:25;3.25;;;2.20;;
4428;SDS011;2227;47.810;8.810;2023-08-20T14:46:51;4.07;;;2.42;;
4428;SDS011;2227;47.810;8.810;2023-08-20T14:49:18;6.75;;;2.25;;
4428;SDS011;2227;47.810;8.810;2023-08-20T14:51:45;4.53;;;2.45;;
4428;SDS011;2227;47.810;8.810;2023-08-20T14:54:12;5.13;;;2.50;;
4428;SDS011;2227;47.810;8.810;2023-08-20T14:56:38;4.78;;;2.58;;
4428;SDS011;2227;47.810;8.810;2023-08-20T14:59:05;5.45;;;2.45;;
4428;SDS011;2227;47.810;8.810;2023-08-20T15:01:32;3.55;;;2.25;;
4428;SDS011;2227;47.810;8.810;2023-08-20T15:03:59;4.40;;;2.50;;
4428;SDS011;2227;47.810;8.810;2023-08-20T15:06:26;4.00;;;2.35;;
4428;SDS011;2227;47.810;8.810;2023-08-20T15:08:53;4.45;;;2.05;;
4428;SDS011;2227;47.810;8.810;2023-08-20T15:11:19;4.13;;;2.40;;
4428;SDS011;2227;47.810;8.810;2023-08-20T15:13:46;4.25;;;2.30;;
4428;SDS011;2227;47.810;8.810;2023-08-20T15:16:13;3.88;;;2.10;;
4428;SDS011;2227;47.810;8.810;2023-08-20T15:18:40;3.90;;;2.15;;
4428;SDS011;2227;47.810;8.810;2023-08-20T15:21:07;3.50;;;2.15;;
4428;SDS011;2227;47.810;8.810;2023-08-20T15:23:37;3.78;;;2.38;;
4428;SDS011;2227;47.810;8.810;2023-08-20T15:26:04;3.72;;;2.22;;
4428;SDS011;2227;47.810;8.810;2023-08-20T15:28:31;3.97;;;2.50;;
4428;SDS011;2227;47.810;8.810;2023-08-20T15:31:00;3.67;;;2.15;;
4428;SDS011;2227;47.810;8.810;2023-08-20T15:33:27;4.47;;;2.40;;
4428;SDS011;2227;47.810;8.810;2023-08-20T15:35:57;5.75;;;2.78;;
4428;SDS011;2227;47.810;8.810;2023-08-20T15:38:24;4.07;;;2.40;;
4428;SDS011;2227;47.810;8.810;2023-08-20T15:40:52;5.20;;;2.80;;
4428;SDS011;2227;47.810;8.810;2023-08-20T15:43:22;5.70;;;2.65;;
4428;SDS011;2227;47.810;8.810;2023-08-20T15:45:48;6.50;;;2.88;;
4428;SDS011;2227;47.810;8.810;2023-08-20T15:48:15;4.72;;;3.03;;
4428;SDS011;2227;47.810;8.810;2023-08-20T15:50:43;4.70;;;3.08;;
4428;SDS011;2227;47.810;8.810;2023-08-20T15:53:10;4.38;;;3.15;;
4428;SDS011;2227;47.810;8.810;2023-08-20T15:55:37;3.97;;;2.88;;
4428;SDS011;2227;47.810;8.810;2023-08-20T15:58:03;6.55;;;3.50;;
4428;SDS011;2227;47.810;8.810;2023-08-20T16:00:30;5.70;;;3.20;;
4428;SDS011;2227;47.810;8.810;2023-08-20T16:02:57;5.85;;;3.60;;
4428;SDS011;2227;47.810;8.810;2023-08-20T16:05:24;4.35;;;3.20;;
4428;SDS011;2227;47.810;8.810;2023-08-20T16:07:51;5.30;;;2.58;;
4428;SDS011;2227;47.810;8.810;2023-08-20T16:10:18;5.85;;;3.22;;
4428;SDS011;2227;47.810;8.810;2023-08-20T16:12:45;4.20;;;2.83;;
4428;SDS011;2227;47.810;8.810;2023-08-20T16:15:12;5.22;;;2.90;;
4428;SDS011;2227;47.810;8.810;2023-08-20T16:17:39;5.10;;;3.40;;
4428;SDS011;2227;47.810;8.810;2023-08-20T16:20:06;4.75;;;2.88;;
4428;SDS011;2227;47.810;8.810;2023-08-20T16:22:34;4.63;;;2.72;;
4428;SDS011;2227;47.810;8.810;2023-08-20T16:25:01;6.32;;;2.80;;
4428;SDS011;2227;47.810;8.810;2023-08-20T16:27:31;4.18;;;2.70;;
4428;SDS011;2227;47.810;8.810;2023-08-20T16:30:00;4.60;;;2.80;;
4428;SDS011;2227;47.810;8.810;2023-08-20T16:32:27;5.50;;;3.08;;
4428;SDS011;2227;47.810;8.810;2023-08-20T16:34:54;5.53;;;3.05;;
4428;SDS011;2227;47.810;8.810;2023-08-20T16:37:22;3.60;;;2.50;;
4428;SDS011;2227;47.810;8.810;2023-08-20T16:39:48;5.55;;;2.80;;
4428;SDS011;2227;47.810;8.810;2023-08-20T16:42:15;6.57;;;3.20;;
4428;SDS011;2227;47.810;8.810;2023-08-20T16:44:42;5.25;;;2.88;;
4428;SDS011;2227;47.810;8.810;2023-08-20T16:47:08;5.18;;;2.70;;
4428;SDS011;2227;47.810;8.810;2023-08-20T16:49:35;5.85;;;2.70;;
4428;SDS011;2227;47.810;8.810;2023-08-20T16:52:02;5.35;;;3.53;;
4428;SDS011;2227;47.810;8.810;2023-08-20T16:54:29;6.18;;;2.85;;
4428;SDS011;2227;47.810;8.810;2023-08-20T16:56:56;4.15;;;2.67;;
4428;SDS011;2227;47.810;8.810;2023-08-20T16:59:22;5.50;;;2.90;;
4428;SDS011;2227;47.810;8.810;2023-08-20T17:01:49;4.32;;;2.63;;
4428;SDS011;2227;47.810;8.810;2023-08-20T17:04:16;4.90;;;2.97;;
4428;SDS011;2227;47.810;8.810;2023-08-20T17:06:42;5.72;;;3.08;;
4428;SDS011;2227;47.810;8.810;2023-08-20T17:09:10;4.65;;;2.88;;
4428;SDS011;2227;47.810;8.810;2023-08-20T17:11:37;5.18;;;2.92;;
4428;SDS011;2227;47.810;8.810;2023-08-20T17:14:04;5.32;;;3.33;;
4428;SDS011;2227;47.810;8.810;2023-08-20T17:16:31;5.35;;;2.70;;
4428;SDS011;2227;47.810;8.810;2023-08-20T17:18:59;5.95;;;3.10;;
4428;SDS011;2227;47.810;8.810;2023-08-20T17:21:26;6.05;;;3.13;;
4428;SDS011;2227;47.810;8.810;2023-08-20T17:23:52;5.13;;;3.13;;
4428;SDS011;2227;47.810;8.810;2023-08-20T17:26:19;6.25;;;3.03;;
4428;SDS011;2227;47.810;8.810;2023-08-20T17:28:46;8.18;;;3.20;;
4428;SDS011;2227;47.810;8.810;2023-08-20T17:31:13;6.63;;;3.80;;
4428;SDS011;2227;47.810;8.810;2023-08-20T17:33:40;5.07;;;3.13;;
4428;SDS011;2227;47.810;8.810;2023-08-20T17:36:10;4.03;;;3.03;;
4428;SDS011;2227;47.810;8.810;2023-08-20T17:38:37;5.57;;;3.20;;
4428;SDS011;2227;47.810;8.810;2023-08-20T17:41:04;5.82;;;3.15;;
4428;SDS011;2227;47.810;8.810;2023-08-20T17:43:31;6.72;;;3.35;;
4428;SDS011;2227;47.810;8.810;2023-08-20T17:45:59;4.35;;;3.00;;
4428;SDS011;2227;47.810;8.810;2023-08-20T17:48:25;5.70;;;3.17;;
4428;SDS011;2227;47.810;8.810;2023-08-20T17:50:55;5.22;;;3.33;;
4428;SDS011;2227;47.810;8.810;2023-08-20T17:53:23;5.97;;;3.70;;
4428;SDS011;2227;47.810;8.810;2023-08-20T17:55:54;5.82;;;3.40;;
4428;SDS011;2227;47.810;8.810;2023-08-20T17:58:25;7.85;;;3.75;;
4428;SDS011;2227;47.810;8.810;2023-08-20T18:00:52;7.28;;;3.67;;
4428;SDS011;2227;47.810;8.810;2023-08-20T18:03:18;5.53;;;3.80;;
4428;SDS011;2227;47.810;8.810;2023-08-20T18:05:45;5.53;;;3.92;;
4428;SDS011;2227;47.810;8.810;2023-08-20T18:08:12;5.20;;;3.83;;
4428;SDS011;2227;47.810;8.810;2023-08-20T18:10:39;5.43;;;3.90;;
4428;SDS011;2227;47.810;8.810;2023-08-20T18:13:06;5.63;;;4.05;;
4428;SDS011;2227;47.810;8.810;2023-08-20T18:15:34;5.18;;;4.28;;
4428;SDS011;2227;47.810;8.810;2023-08-20T18:18:01;6.13;;;4.32;;
4428;SDS011;2227;47.810;8.810;2023-08-20T18:20:28;6.22;;;4.68;;
4428;SDS011;2227;47.810;8.810;2023-08-20T18:22:55;5.55;;;4.05;;
4428;SDS011;2227;47.810;8.810;2023-08-20T18:25:21;6.97;;;4.28;;
4428;SDS011;2227;47.810;8.810;2023-08-20T18:27:48;6.25;;;4.25;;
4428;SDS011;2227;47.810;8.810;2023-08-20T18:30:15;5.25;;;4.25;;
4428;SDS011;2227;47.810;8.810;2023-08-20T18:32:42;6.18;;;4.25;;
4428;SDS011;2227;47.810;8.810;2023-08-20T18:35:10;6.43;;;4.47;;
4428;SDS011;2227;47.810;8.810;2023-08-20T18:37:37;7.32;;;4.28;;
4428;SDS011;2227;47.810;8.810;2023-08-20T18:40:04;7.90;;;4.80;;
4428;SDS011;2227;47.810;8.810;2023-08-20T18:45:04;7.53;;;4.40;;
4428;SDS011;2227;47.810;8.810;2023-08-20T18:47:31;7.40;;;4.40;;
4428;SDS011;2227;47.810;8.810;2023-08-20T18:49:59;5.70;;;4.30;;
4428;SDS011;2227;47.810;8.810;2023-08-20T18:52:25;6.40;;;4.53;;
4428;SDS011;2227;47.810;8.810;2023-08-20T18:54:52;6.65;;;4.90;;
4428;SDS011;2227;47.810;8.810;2023-08-20T18:57:19;6.30;;;4.90;;
4428;SDS011;2227;47.810;8.810;2023-08-20T18:59:46;7.88;;;4.60;;
4428;SDS011;2227;47.810;8.810;2023-08-20T19:02:12;7.00;;;4.70;;
4428;SDS011;2227;47.810;8.810;2023-08-20T19:04:39;7.15;;;4.65;;
4428;SDS011;2227;47.810;8.810;2023-08-20T19:07:06;6.45;;;4.88;;
4428;SDS011;2227;47.810;8.810;2023-08-20T19:09:34;8.90;;;4.95;;
4428;SDS011;2227;47.810;8.810;2023-08-20T19:12:01;7.53;;;4.45;;
4428;SDS011;2227;47.810;8.810;2023-08-20T19:14:28;8.25;;;5.03;;
4428;SDS011;2227;47.810;8.810;2023-08-20T19:16:56;6.63;;;4.82;;
4428;SDS011;2227;47.810;8.810;2023-08-20T19:19:23;8.95;;;4.80;;
4428;SDS011;2227;47.810;8.810;2023-08-20T19:21:50;7.47;;;4.70;;
4428;SDS011;2227;47.810;8.810;2023-08-20T19:24:17;8.10;;;4.60;;
4428;SDS011;2227;47.810;8.810;2023-08-20T19:26:44;6.78;;;4.63;;
4428;SDS011;2227;47.810;8.810;2023-08-20T19:29:11;7.22;;;4.85;;
4428;SDS011;2227;47.810;8.810;2023-08-20T19:31:38;8.57;;;5.18;;
4428;SDS011;2227;47.810;8.810;2023-08-20T19:34:05;7.25;;;4.95;;
4428;SDS011;2227;47.810;8.810;2023-08-20T19:36:33;7.10;;;5.10;;
4428;SDS011;2227;47.810;8.810;2023-08-20T19:39:00;6.40;;;4.95;;
4428;SDS011;2227;47.810;8.810;2023-08-20T19:41:27;7.45;;;5.03;;
4428;SDS011;2227;47.810;8.810;2023-08-20T19:43:53;6.22;;;4.60;;
4428;SDS011;2227;47.810;8.810;2023-08-20T19:46:20;7.50;;;5.15;;
4428;SDS011;2227;47.810;8.810;2023-08-20T19:48:50;6.63;;;4.75;;
4428;SDS011;2227;47.810;8.810;2023-08-20T19:51:17;7.15;;;5.18;;
4428;SDS011;2227;47.810;8.810;2023-08-20T19:53:44;6.80;;;4.82;;
4428;SDS011;2227;47.810;8.810;2023-08-20T19:56:11;5.95;;;4.68;;
4428;SDS011;2227;47.810;8.810;2023-08-20T19:58:37;6.88;;;4.65;;
4428;SDS011;2227;47.810;8.810;2023-08-20T20:01:04;6.32;;;4.85;;
4428;SDS011;2227;47.810;8.810;2023-08-20T20:03:32;9.18;;;4.95;;
4428;SDS011;2227;47.810;8.810;2023-08-20T20:05:59;5.30;;;4.53;;